Nelson, Nebraska
Current Conditions -  °F | °C
As of 2:35 PM on Friday 28 Nov 2014 (Local Time) from KHJH Reporting Station
Clear Clear  
Wind Chill: 64°   Ceiling: Unl
Heat Index: 64°   Visibility: 10mi
Dew Point: 26°   Wind: 10mph
Humidity: 24%   Direction: 210°SSW
Pressure: 29.71"   Gusts: 17mph
Location:  40.2°N, 98.07°W
Report Text: KHJH 282035Z AUTO 21009G15KT 10SM CLR 18/M03 A2971 RMK AO2 T01771035
Loading
Personal Weather Stations






























Interactive Weather Map New forecast layout! Learn more

10-Day Weather Forecast

Advertisements
Track Severe Weather on mobile